Time;durP1;ratioP1;P1;durP2;ratioP2;P2;SDS_P1;SDS_P2;PMS_P1;PMS_P2;Temp;Humidity;BMP_temperature;BMP_pressure;BME280_temperature;BME280_humidity;BME280_pressure;Samples;Min_cycle;Max_cycle;Signal;HPM_P1;HPM_P2
2022/11/12 00:00:23;;;;;;;30.40;22.60;;;6.20;99.90;;;;;;5088808;22;20298;-50
2022/11/12 00:02:50;;;;;;;27.67;22.20;;;6.20;99.90;;;;;;5062116;28;20204;-51
2022/11/12 00:05:17;;;;;;;32.10;22.80;;;6.20;99.90;;;;;;5064724;28;20211;-50
2022/11/12 00:07:44;;;;;;;32.47;23.50;;;6.30;99.90;;;;;;5067063;28;20244;-49
2022/11/12 00:10:11;;;;;;;34.43;22.37;;;6.30;99.90;;;;;;5063151;28;20199;-52
2022/11/12 00:12:39;;;;;;;28.67;21.67;;;6.30;99.90;;;;;;5066838;28;20300;-50
2022/11/12 00:15:07;;;;;;;32.97;22.50;;;6.30;99.90;;;;;;5063984;28;20253;-51
2022/11/12 00:17:35;;;;;;;32.10;21.60;;;6.30;99.90;;;;;;5066062;28;20202;-51
2022/11/12 00:20:02;;;;;;;29.83;21.50;;;6.30;99.90;;;;;;5069734;28;20209;-52
2022/11/12 00:22:29;;;;;;;26.40;20.53;;;6.40;99.90;;;;;;5066879;28;20696;-51
2022/11/12 00:24:56;;;;;;;28.10;21.27;;;6.40;99.90;;;;;;5067838;28;21748;-51
2022/11/12 00:27:23;;;;;;;36.10;23.03;;;6.40;99.90;;;;;;5064978;28;20622;-49
2022/11/12 00:29:51;;;;;;;38.00;25.07;;;6.50;99.90;;;;;;5051461;28;20229;-52
2022/11/12 00:32:18;;;;;;;31.43;22.40;;;6.50;99.90;;;;;;5064327;28;20299;-49
2022/11/12 00:34:45;;;;;;;28.07;22.20;;;6.50;99.90;;;;;;5067986;28;20622;-52
2022/11/12 00:37:12;;;;;;;30.37;22.03;;;6.50;99.90;;;;;;5058283;28;20210;-49
2022/11/12 00:39:39;;;;;;;25.50;21.60;;;6.50;99.90;;;;;;5069147;28;20252;-49
2022/11/12 00:42:06;;;;;;;25.63;20.80;;;6.50;99.90;;;;;;5061720;28;20231;-51
2022/11/12 00:44:33;;;;;;;26.23;20.97;;;6.60;99.90;;;;;;5063228;28;20270;-51
2022/11/12 00:47:01;;;;;;;27.27;20.90;;;6.60;99.90;;;;;;5082358;28;20634;-50
2022/11/12 00:49:28;;;;;;;24.83;20.60;;;6.50;99.90;;;;;;5073961;28;20248;-52
2022/11/12 00:51:55;;;;;;;22.67;17.63;;;6.50;99.90;;;;;;5068054;28;20249;-49
2022/11/12 00:54:22;;;;;;;24.60;19.00;;;6.60;99.90;;;;;;5070164;28;20199;-49
2022/11/12 00:56:49;;;;;;;20.47;16.83;;;6.60;99.90;;;;;;5084057;28;20199;-51
2022/11/12 00:59:16;;;;;;;27.10;20.20;;;6.60;99.90;;;;;;5081343;28;20628;-50
2022/11/12 01:01:43;;;;;;;18.97;16.63;;;6.60;99.90;;;;;;5061840;28;20235;-50
2022/11/12 01:04:12;;;;;;;28.83;20.13;;;6.70;99.90;;;;;;5063267;28;20227;-51
2022/11/12 01:06:40;;;;;;;26.33;19.77;;;6.70;99.90;;;;;;5070146;28;20280;-50
2022/11/12 01:09:08;;;;;;;26.37;18.10;;;6.80;99.90;;;;;;5065180;28;20241;-51
2022/11/12 01:11:35;;;;;;;25.07;17.60;;;6.70;99.90;;;;;;5068619;28;20290;-51
2022/11/12 01:14:04;;;;;;;30.23;22.07;;;6.80;99.90;;;;;;5063871;28;20199;-51
2022/11/12 01:16:35;;;;;;;26.77;20.20;;;6.70;99.90;;;;;;5070532;28;20204;-50
2022/11/12 01:19:03;;;;;;;23.37;18.87;;;6.80;99.90;;;;;;5055409;28;20199;-50
2022/11/12 01:21:32;;;;;;;28.47;19.23;;;6.80;99.90;;;;;;5067694;28;20221;-50
2022/11/12 01:24:00;;;;;;;27.80;18.53;;;6.80;99.90;;;;;;5065276;28;20268;-50
2022/11/12 01:26:28;;;;;;;27.60;19.60;;;6.80;99.90;;;;;;5067977;28;20207;-51
2022/11/12 01:28:55;;;;;;;28.57;19.97;;;6.90;99.90;;;;;;5069433;28;20637;-50
2022/11/12 01:31:24;;;;;;;26.43;19.13;;;6.90;99.90;;;;;;5067144;28;20489;-50
2022/11/12 01:33:55;;;;;;;28.67;20.67;;;7.00;99.90;;;;;;5064897;28;20650;-51
2022/11/12 01:36:23;;;;;;;29.03;20.20;;;7.10;99.90;;;;;;5068303;28;20215;-50
2022/11/12 01:38:53;;;;;;;30.70;20.57;;;7.20;99.90;;;;;;5061910;28;20228;-50
2022/11/12 01:41:23;;;;;;;31.20;21.50;;;7.30;99.90;;;;;;5064441;28;20296;-50
2022/11/12 01:44:12;;;;;;;33.10;20.97;;;7.40;99.90;;;;;;5063046;28;20213;-51
2022/11/12 01:46:48;;;;;;;28.67;20.67;;;7.30;99.90;;;;;;5063360;28;20265;-51
2022/11/12 01:49:22;;;;;;;35.57;20.13;;;7.30;99.90;;;;;;5069135;28;20750;-51
2022/11/12 01:51:54;;;;;;;30.47;20.57;;;7.30;99.90;;;;;;5054004;28;20256;-51
2022/11/12 01:54:23;;;;;;;29.43;20.73;;;7.30;99.90;;;;;;5066424;28;20254;-52
2022/11/12 01:56:51;;;;;;;30.63;21.10;;;7.20;99.90;;;;;;5065999;28;20207;-51
2022/11/12 01:59:26;;;;;;;29.47;20.13;;;7.20;99.90;;;;;;5068155;28;20236;-52
2022/11/12 02:01:53;;;;;;;26.17;18.80;;;7.10;99.90;;;;;;5070236;28;20225;-50
2022/11/12 02:04:21;;;;;;;30.07;21.03;;;7.10;99.90;;;;;;5062514;28;20262;-52
2022/11/12 02:06:50;;;;;;;27.40;20.10;;;7.10;99.90;;;;;;5054995;28;20904;-51
2022/11/12 02:09:22;;;;;;;31.70;20.33;;;7.10;99.90;;;;;;5062583;28;20280;-50
2022/11/12 02:11:49;;;;;;;31.17;19.87;;;7.10;99.90;;;;;;5066758;28;20223;-51
2022/11/12 02:14:15;;;;;;;30.23;20.37;;;7.10;99.90;;;;;;5060835;28;20194;-51
2022/11/12 02:16:45;;;;;;;33.93;22.57;;;7.10;99.90;;;;;;5062707;28;20332;-52
2022/11/12 02:19:14;;;;;;;32.80;22.37;;;7.10;99.90;;;;;;5069433;28;20200;-51
2022/11/12 02:21:43;;;;;;;36.50;21.40;;;7.10;99.90;;;;;;5059640;28;20300;-50
2022/11/12 02:24:31;;;;;;;34.93;20.03;;;7.10;99.90;;;;;;5066475;28;20223;-52
2022/11/12 02:26:59;;;;;;;40.03;22.77;;;7.10;99.90;;;;;;5066113;28;20194;-51
2022/11/12 02:29:26;;;;;;;39.07;22.63;;;7.20;99.90;;;;;;5065041;28;20200;-52
2022/11/12 02:31:53;;;;;;;38.37;22.97;;;7.20;99.90;;;;;;5054700;28;20275;-51
2022/11/12 02:34:22;;;;;;;39.30;23.43;;;7.20;99.90;;;;;;5060484;28;20196;-51
2022/11/12 02:36:51;;;;;;;37.53;22.93;;;7.30;99.90;;;;;;5062395;28;20203;-51
2022/11/12 02:39:22;;;;;;;40.10;24.03;;;7.30;99.90;;;;;;5061657;28;20195;-51
2022/11/12 02:41:49;;;;;;;33.93;20.83;;;7.20;99.90;;;;;;5066873;28;20226;-52
2022/11/12 02:44:16;;;;;;;36.10;21.83;;;7.20;99.90;;;;;;5069925;28;20271;-51
2022/11/12 02:46:43;;;;;;;39.30;22.83;;;7.20;99.90;;;;;;5062201;28;20264;-49
2022/11/12 02:49:09;;;;;;;40.17;21.80;;;7.20;99.90;;;;;;5061395;28;20282;-50
2022/11/12 02:51:36;;;;;;;40.47;23.07;;;7.20;99.90;;;;;;5064308;28;20292;-51
2022/11/12 02:54:05;;;;;;;36.50;21.20;;;7.20;99.90;;;;;;5068737;28;20344;-51
2022/11/12 02:56:32;;;;;;;42.37;24.40;;;7.20;99.90;;;;;;5068182;28;20204;-50
2022/11/12 02:58:59;;;;;;;40.40;23.93;;;7.20;99.90;;;;;;5069967;28;20669;-50
2022/11/12 03:01:26;;;;;;;40.73;24.17;;;7.20;99.90;;;;;;5065736;28;20231;-51
2022/11/12 03:03:53;;;;;;;38.33;21.83;;;7.20;99.90;;;;;;5070730;28;20199;-51
2022/11/12 03:06:20;;;;;;;43.87;25.27;;;7.20;99.90;;;;;;5069838;28;20569;-51
2022/11/12 03:08:47;;;;;;;38.97;21.17;;;7.20;99.90;;;;;;5061751;28;20254;-52
2022/11/12 03:11:17;;;;;;;36.53;20.97;;;7.20;99.90;;;;;;5065175;28;20231;-50
2022/11/12 03:13:44;;;;;;;42.57;23.80;;;7.10;99.90;;;;;;5061591;28;20677;-51
2022/11/12 03:16:11;;;;;;;40.03;22.53;;;7.10;99.90;;;;;;5070620;28;20799;-51
2022/11/12 03:18:38;;;;;;;38.20;22.23;;;7.10;99.90;;;;;;5068638;28;20260;-51
2022/11/12 03:21:06;;;;;;;37.70;23.10;;;7.10;99.90;;;;;;5059875;28;20223;-52
2022/11/12 03:26:57;;;;;;;33.47;20.30;;;7.10;99.90;;;;;;5068576;28;20196;-50
2022/11/12 03:29:25;;;;;;;39.60;22.40;;;7.10;99.90;;;;;;5064621;28;20216;-52
2022/11/12 03:31:51;;;;;;;38.03;22.63;;;7.10;99.90;;;;;;5051349;28;20226;-50
2022/11/12 03:34:18;;;;;;;34.87;20.40;;;7.10;99.90;;;;;;5060447;28;20203;-51
2022/11/12 03:36:45;;;;;;;32.60;19.87;;;7.00;99.90;;;;;;5057324;28;20195;-51
2022/11/12 03:39:12;;;;;;;40.57;21.97;;;7.00;99.90;;;;;;5057793;28;20206;-51
2022/11/12 03:41:39;;;;;;;40.30;21.87;;;7.00;99.90;;;;;;5063331;28;20340;-50
2022/11/12 03:44:08;;;;;;;40.47;22.23;;;7.00;99.90;;;;;;5063344;28;20686;-51
2022/11/12 03:46:35;;;;;;;39.27;23.33;;;7.00;99.90;;;;;;5070362;28;20198;-51
2022/11/12 03:49:02;;;;;;;36.97;21.30;;;7.00;99.90;;;;;;5059635;28;20191;-50
2022/11/12 03:51:29;;;;;;;41.03;22.53;;;7.00;99.90;;;;;;5057228;28;20711;-51
2022/11/12 03:53:56;;;;;;;38.03;21.13;;;7.00;99.90;;;;;;5063685;28;20204;-50
2022/11/12 03:56:23;;;;;;;36.63;21.70;;;7.00;99.90;;;;;;5063523;28;20204;-51
2022/11/12 03:58:50;;;;;;;44.90;22.57;;;7.00;99.90;;;;;;5067222;28;20252;-50
2022/11/12 04:01:18;;;;;;;37.37;22.23;;;7.00;99.90;;;;;;5063151;28;20238;-51
2022/11/12 04:03:45;;;;;;;40.87;21.83;;;7.00;99.90;;;;;;5050661;28;20550;-51
2022/11/12 04:08:56;;;;;;;33.20;20.37;;;7.00;99.90;;;;;;5067368;28;20585;-50
2022/11/12 04:11:23;;;;;;;29.90;19.47;;;7.00;99.90;;;;;;5057951;28;20634;-51
2022/11/12 04:13:50;;;;;;;34.03;19.93;;;7.00;99.90;;;;;;5067127;28;20665;-51
2022/11/12 04:21:54;;;;;;;42.20;23.13;;;7.10;99.90;;;;;;5060919;28;20272;-51
2022/11/12 04:27:13;;;;;;;32.33;20.00;;;7.10;99.90;;;;;;5057897;28;20224;-50
2022/11/12 04:32:26;;;;;;;33.20;20.90;;;7.00;99.90;;;;;;5062322;28;20233;-52
2022/11/12 04:34:54;;;;;;;39.53;21.73;;;7.00;99.90;;;;;;5072795;28;20199;-51
2022/11/12 04:37:22;;;;;;;33.30;19.93;;;7.00;99.90;;;;;;5067778;28;20232;-50
2022/11/12 04:39:49;;;;;;;40.37;23.37;;;7.00;99.90;;;;;;5071138;28;20215;-51
2022/11/12 04:45:03;;;;;;;33.90;19.67;;;7.00;99.90;;;;;;5063439;28;20588;-50
2022/11/12 04:47:34;;;;;;;27.47;16.87;;;7.00;99.90;;;;;;5061757;28;20684;-50
2022/11/12 04:50:20;;;;;;;32.87;19.00;;;7.00;99.90;;;;;;5057378;28;20206;-51
2022/11/12 04:52:47;;;;;;;29.63;18.37;;;7.00;99.90;;;;;;5065216;28;20261;-50
2022/11/12 04:55:14;;;;;;;30.43;19.27;;;7.00;99.90;;;;;;5061658;28;20641;-51
2022/11/12 04:57:41;;;;;;;34.30;18.77;;;7.00;99.90;;;;;;5067783;28;20622;-50
2022/11/12 05:00:10;;;;;;;31.17;18.60;;;6.90;99.90;;;;;;5071041;28;20625;-51
2022/11/12 05:02:39;;;;;;;31.97;19.67;;;6.90;99.90;;;;;;5069254;28;20199;-50
2022/11/12 05:05:06;;;;;;;35.33;20.53;;;6.90;99.90;;;;;;5055735;28;20219;-51
2022/11/12 05:07:37;;;;;;;34.63;18.83;;;6.90;99.90;;;;;;5058777;28;20272;-50
2022/11/12 05:10:05;;;;;;;36.07;20.73;;;6.90;99.90;;;;;;5062062;28;20555;-50
2022/11/12 05:12:32;;;;;;;32.47;18.47;;;6.90;99.90;;;;;;5068068;28;20222;-51
2022/11/12 05:14:59;;;;;;;33.30;19.93;;;6.90;99.90;;;;;;5062181;28;20199;-50
2022/11/12 05:17:26;;;;;;;32.20;18.30;;;6.80;99.90;;;;;;5072460;28;20613;-51
2022/11/12 05:19:55;;;;;;;31.03;17.83;;;6.80;99.90;;;;;;5073581;28;20207;-50
2022/11/12 05:22:22;;;;;;;30.53;18.63;;;6.90;99.90;;;;;;5073745;28;20634;-50
2022/11/12 05:24:49;;;;;;;33.97;19.00;;;6.90;99.90;;;;;;5072991;28;20238;-50
2022/11/12 05:27:19;;;;;;;29.47;19.27;;;6.90;99.90;;;;;;5071623;28;20287;-50
2022/11/12 05:29:46;;;;;;;37.33;20.90;;;6.90;99.90;;;;;;5073881;28;20283;-50
2022/11/12 05:32:15;;;;;;;36.90;21.10;;;6.90;99.90;;;;;;5072671;28;20565;-51
2022/11/12 05:34:42;;;;;;;34.60;19.80;;;6.90;99.90;;;;;;5066198;28;20194;-49
2022/11/12 05:37:12;;;;;;;30.53;19.60;;;6.90;99.90;;;;;;5063064;28;20264;-50
2022/11/12 05:39:39;;;;;;;38.40;19.67;;;6.90;99.90;;;;;;5063020;28;20258;-50
2022/11/12 05:42:07;;;;;;;36.23;18.63;;;6.80;99.90;;;;;;5068045;28;20225;-50
2022/11/12 05:44:34;;;;;;;31.20;17.30;;;6.80;99.90;;;;;;5068451;28;20194;-49
2022/11/12 05:47:01;;;;;;;34.03;19.33;;;6.80;99.90;;;;;;5059720;28;20202;-49
2022/11/12 05:49:29;;;;;;;32.80;17.73;;;6.80;99.90;;;;;;5058387;28;20232;-50
2022/11/12 05:51:56;;;;;;;32.97;18.63;;;6.90;99.90;;;;;;5073000;28;20231;-49
2022/11/12 05:54:24;;;;;;;33.23;19.40;;;6.80;99.90;;;;;;5073125;28;20248;-50
2022/11/12 05:56:53;;;;;;;34.50;18.40;;;6.80;99.90;;;;;;5065517;28;20205;-49
2022/11/12 05:59:23;;;;;;;30.50;17.13;;;6.70;99.90;;;;;;5064561;28;20208;-50
2022/11/12 06:01:50;;;;;;;35.20;18.83;;;6.70;99.90;;;;;;5082316;22;20317;-50
2022/11/12 06:04:17;;;;;;;32.20;19.07;;;6.60;99.90;;;;;;5045626;28;20195;-50
2022/11/12 06:06:44;;;;;;;30.77;17.37;;;6.60;99.90;;;;;;5049592;28;20231;-49
2022/11/12 06:09:11;;;;;;;32.17;17.20;;;6.60;99.90;;;;;;5072363;28;20256;-50
2022/11/12 06:15:02;;;;;;;37.67;19.10;;;6.70;99.90;;;;;;5051302;28;20186;-49
2022/11/12 06:17:29;;;;;;;33.40;16.83;;;6.60;99.90;;;;;;5051212;28;20212;-49
2022/11/12 06:19:56;;;;;;;30.20;17.03;;;6.60;99.90;;;;;;5053270;28;20294;-50
2022/11/12 06:22:23;;;;;;;29.67;17.77;;;6.60;99.90;;;;;;5050934;28;20281;-50
2022/11/12 06:24:50;;;;;;;34.07;17.77;;;6.60;99.90;;;;;;5051312;28;20269;-51
2022/11/12 06:27:17;;;;;;;32.00;20.10;;;6.60;99.90;;;;;;5052302;28;20195;-50
2022/11/12 06:29:43;;;;;;;31.70;18.17;;;6.60;99.90;;;;;;5049154;28;20230;-50
2022/11/12 06:32:12;;;;;;;34.83;18.30;;;6.60;99.90;;;;;;5048032;28;20231;-50
2022/11/12 06:34:39;;;;;;;30.80;16.90;;;6.60;99.90;;;;;;5049368;28;20200;-50
2022/11/12 06:37:06;;;;;;;29.47;16.37;;;6.70;99.90;;;;;;5051451;28;20207;-50
2022/11/12 06:39:33;;;;;;;29.70;17.27;;;6.60;99.90;;;;;;5050705;28;20211;-50
2022/11/12 06:42:00;;;;;;;29.50;18.30;;;6.60;99.90;;;;;;5051041;28;20219;-50
2022/11/12 06:44:28;;;;;;;27.80;17.30;;;6.60;99.90;;;;;;5049453;28;20286;-49
2022/11/12 06:46:55;;;;;;;23.20;14.73;;;6.60;99.90;;;;;;5045218;28;20635;-51
2022/11/12 06:49:24;;;;;;;27.47;16.67;;;6.60;99.90;;;;;;5050377;28;20640;-50
2022/11/12 06:51:51;;;;;;;28.23;16.93;;;6.60;99.90;;;;;;5045297;28;20223;-50
2022/11/12 06:54:21;;;;;;;25.70;16.52;;;6.60;99.90;;;;;;5046550;28;20459;-50
2022/11/12 06:56:48;;;;;;;26.73;16.50;;;6.60;99.90;;;;;;5044538;28;20230;-50
2022/11/12 06:59:15;;;;;;;29.03;16.43;;;6.70;99.90;;;;;;5049825;28;20207;-50
2022/11/12 07:01:43;;;;;;;25.20;16.20;;;6.70;99.90;;;;;;5047869;28;20603;-50
2022/11/12 07:04:10;;;;;;;26.97;14.87;;;6.70;99.90;;;;;;5050631;28;20226;-49
2022/11/12 07:06:38;;;;;;;24.83;14.90;;;6.60;99.90;;;;;;5047877;28;20302;-50
2022/11/12 07:09:06;;;;;;;28.37;15.40;;;6.60;99.90;;;;;;5043685;28;20689;-50
2022/11/12 07:11:33;;;;;;;25.93;16.20;;;6.60;99.90;;;;;;5042385;28;20643;-49
2022/11/12 07:14:00;;;;;;;29.50;16.33;;;6.50;99.90;;;;;;5048015;28;20755;-50
2022/11/12 07:16:27;;;;;;;26.03;15.90;;;6.60;99.90;;;;;;5047418;28;20526;-50
2022/11/12 07:18:54;;;;;;;29.47;16.90;;;6.60;99.90;;;;;;5047265;28;20209;-49
2022/11/12 07:21:21;;;;;;;25.30;15.47;;;6.60;99.90;;;;;;5045740;28;20744;-50
2022/11/12 07:23:50;;;;;;;29.60;17.33;;;6.60;99.90;;;;;;5050198;28;20263;-50
2022/11/12 07:26:19;;;;;;;26.27;16.10;;;6.70;99.90;;;;;;5047227;28;20223;-53
2022/11/12 07:28:47;;;;;;;23.97;15.87;;;6.70;99.90;;;;;;5048904;28;20199;-50
2022/11/12 07:31:16;;;;;;;22.73;15.07;;;6.70;99.90;;;;;;5049514;28;20304;-50
2022/11/12 07:33:44;;;;;;;25.57;16.17;;;6.70;99.90;;;;;;5050155;28;20205;-51
2022/11/12 07:36:13;;;;;;;28.40;16.10;;;6.70;99.90;;;;;;5048973;28;20217;-50
2022/11/12 07:38:41;;;;;;;26.83;15.53;;;6.80;99.90;;;;;;5047016;28;20211;-50
2022/11/12 07:41:13;;;;;;;29.17;16.37;;;6.90;99.90;;;;;;5049289;28;20310;-50
2022/11/12 07:43:41;;;;;;;27.10;16.40;;;6.90;99.90;;;;;;5047884;28;20246;-50
2022/11/12 07:46:10;;;;;;;32.17;16.70;;;6.90;99.90;;;;;;5047448;28;20225;-51
2022/11/12 07:48:38;;;;;;;23.40;14.83;;;6.90;99.90;;;;;;5046050;28;20210;-50
2022/11/12 07:51:07;;;;;;;21.33;14.07;;;6.90;99.90;;;;;;5045918;28;20230;-50
2022/11/12 07:53:34;;;;;;;29.33;16.87;;;6.80;99.90;;;;;;5042251;28;20578;-51
2022/11/12 07:56:03;;;;;;;28.23;16.17;;;6.90;99.90;;;;;;5042735;28;20746;-51
2022/11/12 07:58:34;;;;;;;26.37;16.20;;;6.80;99.90;;;;;;5041896;28;20708;-52
2022/11/12 08:01:08;;;;;;;30.93;17.77;;;6.80;99.90;;;;;;5047922;28;20754;-50
2022/11/12 08:03:35;;;;;;;29.10;17.07;;;6.80;99.90;;;;;;5048871;28;20309;-50
2022/11/12 08:06:02;;;;;;;29.07;15.37;;;7.00;99.90;;;;;;5041874;28;20215;-50
2022/11/12 08:08:29;;;;;;;28.33;16.67;;;7.10;99.90;;;;;;5051919;28;20276;-50
2022/11/12 08:10:56;;;;;;;29.67;15.23;;;6.90;99.90;;;;;;5057278;28;20214;-50
2022/11/12 08:13:23;;;;;;;26.73;16.17;;;6.90;99.90;;;;;;5056120;28;20202;-50
2022/11/12 08:15:52;;;;;;;33.13;17.13;;;7.10;99.90;;;;;;5056409;28;20274;-50
2022/11/12 08:18:19;;;;;;;25.90;15.63;;;7.10;99.90;;;;;;5056123;28;20203;-50
2022/11/12 08:20:46;;;;;;;32.57;16.60;;;7.10;99.90;;;;;;5056867;28;20219;-50
2022/11/12 08:23:13;;;;;;;26.03;15.53;;;7.20;99.90;;;;;;5055346;28;20207;-51
2022/11/12 08:25:40;;;;;;;24.93;14.83;;;7.10;99.90;;;;;;5055525;28;20215;-50
2022/11/12 08:28:07;;;;;;;26.23;15.70;;;7.10;99.90;;;;;;5056499;28;20275;-51
2022/11/12 08:30:34;;;;;;;28.13;17.03;;;7.10;99.90;;;;;;5056377;28;20211;-50
2022/11/12 08:33:05;;;;;;;28.00;15.03;;;7.10;99.90;;;;;;5056140;28;20224;-50
2022/11/12 08:35:33;;;;;;;25.73;16.37;;;7.10;99.90;;;;;;5056412;28;20203;-50
2022/11/12 08:38:01;;;;;;;23.73;15.43;;;7.10;99.90;;;;;;5054921;28;20375;-50
2022/11/12 08:40:30;;;;;;;25.43;13.87;;;7.20;99.90;;;;;;5056362;28;20211;-50
2022/11/12 08:42:58;;;;;;;22.37;13.63;;;7.20;99.90;;;;;;5056135;28;20431;-50
2022/11/12 08:45:25;;;;;;;22.47;14.27;;;7.20;99.90;;;;;;5055358;28;20342;-50
2022/11/12 08:47:52;;;;;;;24.07;13.53;;;7.20;99.90;;;;;;5056438;28;20657;-50
2022/11/12 08:50:20;;;;;;;22.40;14.83;;;7.20;99.90;;;;;;5056294;28;20744;-50
2022/11/12 08:52:47;;;;;;;24.40;13.90;;;7.20;99.90;;;;;;5056259;28;20289;-50
2022/11/12 08:55:14;;;;;;;26.80;15.93;;;7.20;99.90;;;;;;5054477;28;20241;-49
2022/11/12 08:57:42;;;;;;;23.27;15.37;;;7.20;99.90;;;;;;5056210;28;20469;-50
2022/11/12 09:00:10;;;;;;;31.07;17.27;;;7.20;99.90;;;;;;5056021;28;20207;-50
2022/11/12 09:02:37;;;;;;;24.50;14.77;;;7.20;99.90;;;;;;5055004;28;20231;-50
2022/11/12 09:05:05;;;;;;;27.67;15.40;;;7.20;99.90;;;;;;5055838;28;20253;-50
2022/11/12 09:07:34;;;;;;;31.53;17.07;;;7.20;99.90;;;;;;5055250;28;20304;-50
2022/11/12 09:10:01;;;;;;;30.50;18.37;;;7.30;99.90;;;;;;5056114;28;20658;-50
2022/11/12 09:12:28;;;;;;;23.80;15.07;;;7.30;99.90;;;;;;5056612;28;20227;-50
2022/11/12 09:14:55;;;;;;;24.43;14.77;;;7.20;99.90;;;;;;5055111;28;20255;-50
2022/11/12 09:17:22;;;;;;;23.93;14.73;;;7.20;99.90;;;;;;5056001;28;20195;-50
2022/11/12 09:19:49;;;;;;;23.23;14.87;;;7.20;99.90;;;;;;5054049;28;20259;-50
2022/11/12 09:22:16;;;;;;;28.30;16.63;;;7.30;99.90;;;;;;5050942;28;20227;-49
2022/11/12 09:24:44;;;;;;;27.03;16.07;;;7.50;99.90;;;;;;5052048;28;20743;-50
2022/11/12 09:27:11;;;;;;;24.57;14.37;;;7.50;99.90;;;;;;5052196;28;20223;-50
2022/11/12 09:29:38;;;;;;;28.33;15.97;;;7.60;99.90;;;;;;5051031;28;20202;-50
2022/11/12 09:32:05;;;;;;;26.77;16.60;;;7.70;99.90;;;;;;5052526;28;20455;-50
2022/11/12 09:34:32;;;;;;;26.20;16.43;;;7.80;99.90;;;;;;5052592;28;20211;-50
2022/11/12 09:36:59;;;;;;;28.20;16.97;;;7.80;99.90;;;;;;5052182;28;20245;-50
2022/11/12 09:39:26;;;;;;;27.37;16.53;;;7.80;99.90;;;;;;5052193;28;20200;-50
2022/11/12 09:41:54;;;;;;;24.53;15.97;;;7.80;99.90;;;;;;5051674;28;20234;-51
2022/11/12 09:44:23;;;;;;;29.33;18.33;;;7.80;99.90;;;;;;5050224;28;20211;-51
2022/11/12 09:46:54;;;;;;;29.53;16.63;;;7.90;99.90;;;;;;5052155;28;20223;-50
2022/11/12 09:49:24;;;;;;;28.40;16.93;;;7.90;99.90;;;;;;5052301;28;20741;-50
2022/11/12 09:51:55;;;;;;;32.07;17.87;;;7.90;99.90;;;;;;5052297;28;20652;-52
2022/11/12 09:54:24;;;;;;;29.27;18.17;;;8.00;99.90;;;;;;5050012;28;20254;-51
2022/11/12 09:56:54;;;;;;;27.87;16.13;;;7.90;99.90;;;;;;5050138;28;20215;-51
2022/11/12 09:59:23;;;;;;;34.07;18.73;;;8.00;99.90;;;;;;5052124;28;20211;-51
2022/11/12 10:02:00;;;;;;;24.60;16.67;;;8.00;99.90;;;;;;5051241;28;20301;-52
2022/11/12 10:04:56;;;;;;;28.27;16.93;;;8.00;99.90;;;;;;5051611;28;20313;-51
2022/11/12 10:07:36;;;;;;;22.93;14.97;;;7.80;99.90;;;;;;5038385;28;20228;-52
2022/11/12 10:10:10;;;;;;;28.33;17.43;;;7.90;99.90;;;;;;5047148;28;20207;-51
2022/11/12 10:12:49;;;;;;;27.97;19.30;;;7.90;99.90;;;;;;5052503;28;20278;-51
2022/11/12 10:18:39;;;;;;;25.43;16.30;;;8.00;99.90;;;;;;5044798;28;20326;-52
2022/11/12 10:21:17;;;;;;;21.87;14.80;;;8.00;99.90;;;;;;5045059;28;20288;-51
2022/11/12 10:23:46;;;;;;;22.80;13.90;;;8.10;99.90;;;;;;5050860;28;20263;-52
2022/11/12 10:26:16;;;;;;;23.90;15.43;;;8.30;99.90;;;;;;5052131;28;20216;-52
2022/11/12 10:28:48;;;;;;;22.80;14.23;;;8.30;99.90;;;;;;5050036;28;20704;-51
2022/11/12 10:31:16;;;;;;;26.83;14.67;;;8.30;99.90;;;;;;5051327;28;20219;-51
2022/11/12 10:33:43;;;;;;;23.20;13.53;;;8.30;99.90;;;;;;5046832;28;20209;-51
2022/11/12 10:36:21;;;;;;;21.87;15.13;;;8.40;99.90;;;;;;5051328;28;20575;-51
2022/11/12 10:38:51;;;;;;;24.30;15.53;;;8.40;99.90;;;;;;5051267;28;20211;-51
2022/11/12 10:41:22;;;;;;;28.50;16.30;;;8.50;99.90;;;;;;5050531;28;20640;-51
2022/11/12 10:43:58;;;;;;;29.23;17.53;;;8.60;99.90;;;;;;5049328;28;20198;-51
2022/11/12 10:46:28;;;;;;;24.43;15.17;;;8.70;99.90;;;;;;5052172;28;20214;-51
2022/11/12 10:48:58;;;;;;;27.57;17.70;;;8.80;99.90;;;;;;5051118;28;20665;-51
2022/11/12 10:51:29;;;;;;;34.70;19.07;;;8.80;99.90;;;;;;5050100;28;20310;-51
2022/11/12 10:53:56;;;;;;;35.80;20.00;;;8.80;99.90;;;;;;5051446;28;20252;-51
2022/11/12 10:56:29;;;;;;;24.07;15.97;;;8.80;99.90;;;;;;5051933;28;20196;-52
2022/11/12 10:59:16;;;;;;;26.70;17.10;;;8.90;99.90;;;;;;5050534;28;21565;-51
2022/11/12 11:01:43;;;;;;;23.87;14.50;;;8.90;99.90;;;;;;5048455;28;20293;-51
2022/11/12 11:04:30;;;;;;;26.73;16.20;;;8.80;99.90;;;;;;5048842;28;20265;-51
2022/11/12 11:07:05;;;;;;;21.30;14.50;;;8.80;99.90;;;;;;5051429;28;20219;-52
2022/11/12 11:09:33;;;;;;;24.63;14.97;;;8.80;99.90;;;;;;5047552;28;20257;-51
2022/11/12 11:12:00;;;;;;;25.30;16.37;;;8.80;99.90;;;;;;5050987;28;20223;-51
2022/11/12 11:14:32;;;;;;;24.90;15.03;;;8.70;99.90;;;;;;5050783;28;20226;-51
2022/11/12 11:17:03;;;;;;;24.37;15.63;;;8.80;99.90;;;;;;5051879;28;20191;-51
2022/11/12 11:19:36;;;;;;;26.97;16.27;;;8.70;99.90;;;;;;5051144;28;20198;-51
2022/11/12 11:22:12;;;;;;;27.77;15.90;;;8.70;99.90;;;;;;5043923;28;20276;-51
2022/11/12 11:24:48;;;;;;;24.80;17.23;;;8.50;99.90;;;;;;5049590;28;20257;-51
2022/11/12 11:27:29;;;;;;;26.23;16.63;;;8.60;99.90;;;;;;5051653;28;20225;-51
2022/11/12 11:30:12;;;;;;;27.17;16.63;;;8.80;99.90;;;;;;5049718;28;20218;-51
2022/11/12 11:32:59;;;;;;;24.03;15.33;;;8.90;99.90;;;;;;5047342;28;20773;-51
2022/11/12 11:35:32;;;;;;;26.63;15.93;;;9.00;99.90;;;;;;5051155;28;20226;-51
2022/11/12 11:38:41;;;;;;;22.80;15.63;;;9.00;99.90;;;;;;5051495;28;20275;-51
2022/11/12 11:41:40;;;;;;;26.13;16.27;;;8.90;99.90;;;;;;5039312;28;20227;-51
2022/11/12 11:44:22;;;;;;;25.20;15.47;;;9.00;99.90;;;;;;5042137;28;20208;-51
2022/11/12 11:47:04;;;;;;;21.80;15.23;;;8.90;99.90;;;;;;5050372;28;20231;-51
2022/11/12 11:49:51;;;;;;;22.17;14.77;;;8.90;99.90;;;;;;5050135;28;20273;-51
2022/11/12 11:52:40;;;;;;;27.43;17.10;;;9.00;99.90;;;;;;5044372;28;20224;-51
2022/11/12 11:55:33;;;;;;;24.53;16.70;;;9.10;99.90;;;;;;5039205;28;20614;-52
2022/11/12 11:58:12;;;;;;;27.47;16.70;;;9.10;99.90;;;;;;5050149;28;20204;-51
2022/11/12 12:00:50;;;;;;;24.90;16.17;;;9.30;99.90;;;;;;5047198;28;20205;-51
2022/11/12 12:03:22;;;;;;;28.47;17.97;;;9.40;99.90;;;;;;5049032;28;20674;-51
2022/11/12 12:06:09;;;;;;;32.83;18.70;;;9.30;99.90;;;;;;5048026;28;20200;-51
2022/11/12 12:08:56;;;;;;;27.77;17.00;;;9.20;99.90;;;;;;5049394;28;20255;-51
2022/11/12 12:11:30;;;;;;;32.87;17.70;;;9.10;99.90;;;;;;5048463;28;20787;-52
2022/11/12 12:14:12;;;;;;;32.73;18.43;;;9.20;99.90;;;;;;5049742;28;20341;-51
2022/11/12 12:16:50;;;;;;;29.00;18.43;;;9.20;99.90;;;;;;5049890;28;20234;-51
2022/11/12 12:19:34;;;;;;;30.00;17.93;;;9.20;99.90;;;;;;5049046;28;20209;-51
2022/11/12 12:22:03;;;;;;;30.70;17.77;;;9.10;99.90;;;;;;5050719;28;20222;-51
2022/11/12 12:24:35;;;;;;;27.23;17.83;;;9.00;99.90;;;;;;5049262;28;20204;-51
2022/11/12 12:27:10;;;;;;;28.67;16.97;;;8.80;99.90;;;;;;5044843;28;20747;-51
2022/11/12 12:29:40;;;;;;;27.13;16.07;;;8.80;99.90;;;;;;5049532;28;20204;-51
2022/11/12 12:32:13;;;;;;;27.67;17.53;;;8.80;99.90;;;;;;5049706;28;20223;-51
2022/11/12 12:34:45;;;;;;;28.93;17.40;;;8.90;99.90;;;;;;5049261;28;20203;-51
2022/11/12 12:37:21;;;;;;;33.67;18.73;;;9.10;99.90;;;;;;5050561;28;20230;-51
2022/11/12 12:39:56;;;;;;;29.37;16.30;;;9.20;99.90;;;;;;5049299;28;20734;-53
2022/11/12 12:42:29;;;;;;;26.63;16.00;;;9.30;99.90;;;;;;5049340;28;20285;-51
2022/11/12 12:45:00;;;;;;;24.00;15.73;;;9.30;99.90;;;;;;5049533;28;20215;-51
2022/11/12 12:47:30;;;;;;;26.37;16.27;;;9.30;99.90;;;;;;5049540;28;20347;-51
2022/11/12 12:50:03;;;;;;;30.17;17.53;;;9.40;99.90;;;;;;5049404;28;20199;-51
2022/11/12 12:52:30;;;;;;;25.97;16.27;;;9.50;99.90;;;;;;5048056;28;20279;-50
2022/11/12 12:54:58;;;;;;;23.40;16.07;;;9.50;99.90;;;;;;5049315;28;20356;-50
2022/11/12 12:57:33;;;;;;;29.17;16.80;;;9.50;99.90;;;;;;5052568;28;20316;-50
2022/11/12 13:00:26;;;;;;;25.90;17.60;;;9.50;99.90;;;;;;5052169;28;20713;-50
2022/11/12 13:02:54;;;;;;;35.40;21.07;;;9.50;99.90;;;;;;5051808;28;20227;-50
2022/11/12 13:05:30;;;;;;;49.93;26.97;;;9.30;99.90;;;;;;5051086;28;20272;-51
2022/11/12 13:08:01;;;;;;;36.03;21.10;;;9.20;99.90;;;;;;5047947;28;20223;-51
2022/11/12 13:10:47;;;;;;;26.60;17.67;;;9.10;99.90;;;;;;5047562;28;20302;-52
2022/11/12 13:13:38;;;;;;;29.93;17.20;;;9.10;99.90;;;;;;5052828;28;20206;-51
2022/11/12 13:16:07;;;;;;;24.80;16.27;;;9.10;99.90;;;;;;5035008;28;20253;-52